Time;durP1;ratioP1;P1;durP2;ratioP2;P2;SDS_P1;SDS_P2;PMS_P1;PMS_P2;Temp;Humidity;BMP_temperature;BMP_pressure;BME280_temperature;BME280_humidity;BME280_pressure;Samples;Min_cycle;Max_cycle;Signal;HPM_P1;HPM_P2
2022/08/29 00:00:14;;;;;;;1.90;1.20;;;24.20;44.70;;;;;;4977674;28;20529;-55
2022/08/29 00:02:50;;;;;;;4.93;1.67;;;24.20;44.70;;;;;;4961345;28;20496;-53
2022/08/29 00:05:21;;;;;;;1.30;1.00;;;24.20;44.80;;;;;;4987149;28;20466;-54
2022/08/29 00:07:52;;;;;;;3.60;1.50;;;24.20;44.70;;;;;;4984802;28;20433;-55
2022/08/29 00:10:22;;;;;;;1.93;1.30;;;24.20;44.80;;;;;;5005902;28;20434;-53
2022/08/29 00:12:50;;;;;;;2.10;1.13;;;24.20;44.70;;;;;;4980871;28;20493;-53
2022/08/29 00:15:20;;;;;;;1.57;1.23;;;24.10;44.50;;;;;;4970297;28;20461;-53
2022/08/29 00:17:50;;;;;;;1.50;1.40;;;24.20;44.60;;;;;;4988216;28;20585;-55
2022/08/29 00:20:22;;;;;;;1.80;1.33;;;24.20;44.70;;;;;;4968206;28;20530;-54
2022/08/29 00:23:02;;;;;;;1.50;1.30;;;24.20;44.80;;;;;;4974807;28;20814;-53
2022/08/29 00:25:31;;;;;;;1.73;1.43;;;24.20;44.70;;;;;;4982648;28;20472;-53
2022/08/29 00:28:00;;;;;;;1.60;1.50;;;24.20;44.60;;;;;;4973890;28;20900;-53
2022/08/29 00:30:29;;;;;;;1.50;1.10;;;24.10;44.70;;;;;;4983308;28;20526;-53
2022/08/29 00:32:59;;;;;;;1.73;1.43;;;24.10;44.70;;;;;;4976814;28;20466;-54
2022/08/29 00:35:29;;;;;;;2.20;1.30;;;24.10;44.70;;;;;;4986729;28;20460;-53
2022/08/29 00:37:58;;;;;;;2.13;1.43;;;24.10;44.80;;;;;;4969830;28;20603;-52
2022/08/29 00:40:30;;;;;;;1.83;1.40;;;24.10;44.80;;;;;;4988639;28;20447;-55
2022/08/29 00:42:58;;;;;;;2.17;1.33;;;24.10;44.70;;;;;;4981963;28;20536;-52
2022/08/29 00:45:28;;;;;;;2.60;1.77;;;24.10;44.70;;;;;;4959358;28;20964;-53
2022/08/29 00:48:02;;;;;;;1.60;1.47;;;24.10;44.60;;;;;;4975873;28;20512;-53
2022/08/29 00:50:35;;;;;;;1.47;1.37;;;24.10;44.70;;;;;;5002248;28;20493;-53
2022/08/29 00:53:05;;;;;;;1.43;1.10;;;24.10;44.60;;;;;;4975858;28;20457;-53
2022/08/29 00:55:36;;;;;;;1.90;1.43;;;24.10;44.70;;;;;;4976379;28;20445;-52
2022/08/29 00:58:08;;;;;;;2.10;1.50;;;24.10;44.60;;;;;;4995077;28;20465;-52
2022/08/29 01:00:41;;;;;;;3.30;1.80;;;24.10;44.70;;;;;;4978544;28;20498;-54
2022/08/29 01:03:12;;;;;;;1.57;1.40;;;24.10;44.70;;;;;;4987599;28;20460;-53
2022/08/29 01:05:41;;;;;;;1.87;1.40;;;24.10;44.80;;;;;;4985513;28;20438;-52
2022/08/29 01:08:10;;;;;;;2.60;1.60;;;24.10;44.60;;;;;;5000654;28;20564;-53
2022/08/29 01:13:31;;;;;;;1.50;1.30;;;24.10;44.90;;;;;;4982896;28;21003;-53
2022/08/29 01:16:00;;;;;;;2.30;1.70;;;24.10;44.60;;;;;;4984341;28;20438;-53
2022/08/29 01:18:34;;;;;;;3.80;1.80;;;24.10;44.80;;;;;;5014603;28;20500;-52
2022/08/29 01:21:12;;;;;;;2.93;1.70;;;24.10;44.70;;;;;;4999442;28;20493;-53
2022/08/29 01:23:48;;;;;;;2.37;1.60;;;24.10;44.80;;;;;;4974282;28;20473;-53
2022/08/29 01:26:19;;;;;;;1.90;1.30;;;24.10;44.60;;;;;;4985767;28;20948;-53
2022/08/29 01:28:51;;;;;;;2.67;1.97;;;24.10;44.60;;;;;;4981319;28;20983;-53
2022/08/29 01:31:23;;;;;;;2.80;1.27;;;24.10;44.60;;;;;;4984173;28;20466;-53
2022/08/29 01:34:14;;;;;;;2.03;1.57;;;24.10;46.00;;;;;;4983839;28;20465;-52
2022/08/29 01:36:49;;;;;;;2.17;1.77;;;24.10;44.60;;;;;;4974836;28;20497;-52
2022/08/29 01:39:18;;;;;;;2.00;1.73;;;24.10;44.70;;;;;;4990443;28;20976;-51
2022/08/29 01:41:48;;;;;;;2.40;1.50;;;24.00;44.60;;;;;;4991640;28;20476;-53
2022/08/29 01:44:20;;;;;;;1.90;1.37;;;24.10;44.70;;;;;;5000323;23;21904;-71
2022/08/29 01:46:51;;;;;;;1.93;1.50;;;24.10;44.50;;;;;;5010457;28;20428;-73
2022/08/29 01:49:20;;;;;;;2.47;1.20;;;24.00;44.50;;;;;;5015417;28;20509;-71
2022/08/29 01:51:48;;;;;;;2.00;1.63;;;24.10;44.60;;;;;;5020462;28;20448;-71
2022/08/29 01:54:17;;;;;;;1.70;1.40;;;24.00;44.60;;;;;;5010483;28;20927;-71
2022/08/29 01:56:50;;;;;;;2.20;1.40;;;24.00;44.50;;;;;;5008749;28;20440;-71
2022/08/29 01:59:24;;;;;;;2.23;1.70;;;24.00;44.60;;;;;;4995064;28;20482;-71
2022/08/29 02:01:55;;;;;;;1.40;1.20;;;24.00;44.70;;;;;;5010696;28;20478;-71
2022/08/29 02:04:24;;;;;;;1.80;1.40;;;24.00;44.70;;;;;;5012709;28;20506;-71
2022/08/29 02:06:55;;;;;;;1.93;1.60;;;24.00;44.60;;;;;;5012649;28;20448;-71
2022/08/29 02:09:23;;;;;;;1.90;1.60;;;24.00;44.80;;;;;;5013829;28;20444;-72
2022/08/29 02:11:53;;;;;;;1.87;1.73;;;24.00;44.50;;;;;;5022095;28;20792;-72
2022/08/29 02:14:23;;;;;;;1.43;1.30;;;24.00;44.50;;;;;;5011890;28;20474;-72
2022/08/29 02:16:51;;;;;;;2.57;1.67;;;24.00;44.50;;;;;;5014541;28;20444;-72
2022/08/29 02:19:19;;;;;;;1.83;1.53;;;24.00;44.40;;;;;;5019807;28;20898;-71
2022/08/29 02:21:51;;;;;;;2.03;1.10;;;24.00;45.70;;;;;;5011736;28;20536;-72
2022/08/29 02:24:19;;;;;;;2.30;1.60;;;24.00;44.60;;;;;;5009451;28;20453;-71
2022/08/29 02:26:55;;;;;;;1.70;1.27;;;24.00;44.80;;;;;;5010808;28;20864;-72
2022/08/29 02:29:25;;;;;;;2.57;1.57;;;24.00;44.80;;;;;;5012141;28;20456;-71
2022/08/29 02:32:07;;;;;;;1.60;1.50;;;23.90;44.70;;;;;;5013233;28;20451;-72
2022/08/29 02:34:36;;;;;;;2.20;1.70;;;23.90;44.70;;;;;;5012380;28;20476;-71
2022/08/29 02:37:06;;;;;;;3.20;2.03;;;23.90;44.80;;;;;;5003207;28;20994;-72
2022/08/29 02:39:35;;;;;;;1.43;1.27;;;23.90;44.80;;;;;;5020376;28;20893;-71
2022/08/29 02:42:05;;;;;;;4.30;2.50;;;23.90;44.70;;;;;;5013401;28;20511;-71
2022/08/29 02:44:34;;;;;;;2.07;1.40;;;23.90;44.70;;;;;;5011586;28;20997;-71
2022/08/29 02:47:03;;;;;;;1.57;1.30;;;23.90;44.70;;;;;;5029745;28;20440;-71
2022/08/29 02:49:32;;;;;;;1.83;1.50;;;23.90;44.50;;;;;;5012883;28;20476;-71
2022/08/29 02:52:05;;;;;;;1.97;1.77;;;23.90;44.50;;;;;;5013288;28;20436;-71
2022/08/29 02:54:34;;;;;;;1.60;1.50;;;23.90;44.60;;;;;;5017029;28;20464;-72
2022/08/29 02:57:03;;;;;;;2.80;1.73;;;23.90;44.70;;;;;;5012707;28;20771;-72
2022/08/29 02:59:32;;;;;;;1.50;1.20;;;23.90;44.60;;;;;;4995408;28;20451;-71
2022/08/29 03:02:00;;;;;;;2.80;1.50;;;23.90;44.80;;;;;;4987989;28;20962;-71
2022/08/29 03:04:29;;;;;;;1.40;1.30;;;23.90;44.60;;;;;;5010308;28;20877;-72
2022/08/29 03:06:57;;;;;;;3.20;1.40;;;23.90;44.60;;;;;;5007826;28;20514;-71
2022/08/29 03:09:26;;;;;;;1.53;1.17;;;23.90;44.70;;;;;;5028475;28;20431;-71
2022/08/29 03:11:55;;;;;;;2.23;1.47;;;23.90;44.50;;;;;;5010292;28;20440;-72
2022/08/29 03:14:25;;;;;;;1.63;1.40;;;23.90;44.50;;;;;;5015059;28;20559;-71
2022/08/29 03:16:54;;;;;;;1.70;1.60;;;23.90;45.60;;;;;;5012397;28;20490;-71
2022/08/29 03:19:22;;;;;;;1.20;1.10;;;23.80;44.30;;;;;;5009858;28;20459;-72
2022/08/29 03:21:51;;;;;;;1.60;1.50;;;23.80;44.50;;;;;;5020145;28;20459;-71
2022/08/29 03:24:19;;;;;;;1.60;1.50;;;23.90;44.80;;;;;;4990644;28;20801;-71
2022/08/29 03:26:54;;;;;;;3.23;1.93;;;23.90;44.70;;;;;;5012245;28;20432;-71
2022/08/29 03:29:27;;;;;;;3.00;1.70;;;23.80;44.60;;;;;;5032580;28;20868;-72
2022/08/29 03:31:57;;;;;;;2.00;1.43;;;23.80;44.40;;;;;;5010151;28;20436;-71
2022/08/29 03:34:26;;;;;;;2.70;1.30;;;23.80;45.70;;;;;;5009564;28;20470;-71
2022/08/29 03:36:54;;;;;;;1.93;1.73;;;23.80;44.50;;;;;;5008387;28;20446;-71
2022/08/29 03:39:23;;;;;;;2.30;1.90;;;23.80;44.60;;;;;;5027522;28;20443;-71
2022/08/29 03:41:52;;;;;;;2.83;1.93;;;23.80;44.70;;;;;;5011831;28;20444;-71
2022/08/29 03:44:20;;;;;;;2.27;1.80;;;23.80;44.80;;;;;;5014152;28;20816;-71
2022/08/29 03:46:50;;;;;;;2.13;1.70;;;23.80;44.80;;;;;;5029006;28;20436;-71
2022/08/29 03:49:19;;;;;;;2.13;1.50;;;23.80;44.50;;;;;;5015968;28;20869;-72
2022/08/29 03:51:48;;;;;;;3.07;1.73;;;23.80;44.60;;;;;;5008206;28;20899;-71
2022/08/29 03:54:17;;;;;;;1.90;1.50;;;23.80;44.70;;;;;;5009471;28;20462;-72
2022/08/29 03:56:46;;;;;;;2.60;1.90;;;23.80;44.70;;;;;;5027970;28;20829;-72
2022/08/29 03:59:15;;;;;;;1.93;1.50;;;23.80;44.70;;;;;;5008393;28;20479;-71
2022/08/29 04:01:46;;;;;;;3.03;1.37;;;23.80;44.70;;;;;;5009846;28;20439;-71
2022/08/29 04:05:05;;;;;;;1.83;1.70;;;23.80;44.80;;;;;;5012466;28;20479;-71
2022/08/29 04:07:07;;;;;;;1.93;1.30;;;23.80;44.70;;;;;;5012531;28;20896;-72
2022/08/29 04:09:37;;;;;;;2.30;1.67;;;23.70;44.70;;;;;;5015212;28;20438;-71
2022/08/29 04:12:05;;;;;;;3.07;1.80;;;23.70;44.60;;;;;;4995921;28;20447;-71
2022/08/29 04:14:37;;;;;;;4.70;1.73;;;23.70;44.70;;;;;;5008363;28;20476;-71
2022/08/29 04:17:06;;;;;;;1.83;1.63;;;23.70;44.80;;;;;;5031767;28;20444;-71
2022/08/29 04:19:36;;;;;;;2.83;2.53;;;23.70;44.80;;;;;;5013733;28;20966;-71
2022/08/29 04:22:05;;;;;;;2.27;1.83;;;23.70;44.80;;;;;;5012057;28;20619;-71
2022/08/29 04:24:35;;;;;;;2.10;1.47;;;23.70;44.80;;;;;;5017715;28;20467;-71
2022/08/29 04:27:03;;;;;;;2.20;1.70;;;23.70;44.80;;;;;;5040910;28;20443;-71
2022/08/29 04:29:33;;;;;;;2.27;1.77;;;23.70;44.80;;;;;;5013157;28;20439;-71
2022/08/29 04:32:03;;;;;;;2.00;1.80;;;23.70;44.90;;;;;;5004160;28;20890;-72
2022/08/29 04:34:32;;;;;;;2.77;1.90;;;23.70;44.90;;;;;;5023329;28;20497;-71
2022/08/29 04:37:01;;;;;;;3.50;1.70;;;23.70;44.90;;;;;;5022186;28;21015;-71
2022/08/29 04:39:29;;;;;;;2.50;1.53;;;23.70;44.90;;;;;;5021789;28;20428;-72
2022/08/29 04:41:58;;;;;;;2.10;1.40;;;23.70;44.80;;;;;;4998733;28;20440;-71
2022/08/29 04:44:26;;;;;;;4.40;1.80;;;23.70;44.80;;;;;;5014225;28;21000;-71
2022/08/29 04:46:55;;;;;;;2.57;1.73;;;23.70;44.80;;;;;;5027253;28;20432;-71
2022/08/29 04:49:23;;;;;;;3.43;2.00;;;23.60;44.80;;;;;;5013465;28;20424;-71
2022/08/29 04:51:52;;;;;;;2.10;1.83;;;23.60;44.60;;;;;;5011532;28;20518;-72
2022/08/29 04:54:22;;;;;;;2.77;2.50;;;23.60;44.60;;;;;;5012221;28;20472;-72
2022/08/29 04:56:51;;;;;;;3.10;1.80;;;23.60;44.80;;;;;;5013025;28;20479;-71
2022/08/29 04:59:24;;;;;;;4.50;1.90;;;23.60;44.80;;;;;;5021148;28;20452;-72
2022/08/29 05:01:54;;;;;;;5.80;2.13;;;23.60;44.80;;;;;;5022612;28;20452;-71
2022/08/29 05:04:22;;;;;;;2.33;1.83;;;23.60;44.80;;;;;;5017126;28;20525;-71
2022/08/29 05:06:51;;;;;;;2.33;1.30;;;23.60;44.70;;;;;;5022681;28;20803;-71
2022/08/29 05:09:19;;;;;;;2.37;1.77;;;23.60;44.70;;;;;;5012591;28;20986;-71
2022/08/29 05:11:49;;;;;;;2.67;1.93;;;23.60;46.20;;;;;;5016825;28;20444;-71
2022/08/29 05:14:18;;;;;;;1.73;1.60;;;23.60;44.90;;;;;;5034450;28;20460;-72
2022/08/29 05:16:47;;;;;;;2.53;1.73;;;23.60;45.00;;;;;;5037846;28;20641;-72
2022/08/29 05:19:15;;;;;;;2.50;1.50;;;23.50;44.70;;;;;;5030728;28;20471;-72
2022/08/29 05:21:45;;;;;;;2.33;1.70;;;23.60;44.80;;;;;;5012804;28;20477;-72
2022/08/29 05:24:16;;;;;;;1.90;1.70;;;23.50;44.80;;;;;;5014588;28;20567;-71
2022/08/29 05:26:45;;;;;;;2.77;1.83;;;23.60;45.10;;;;;;5012202;28;20448;-71
2022/08/29 05:29:15;;;;;;;3.23;1.73;;;23.50;44.70;;;;;;5010461;28;20494;-71
2022/08/29 05:31:44;;;;;;;2.70;1.57;;;23.50;44.80;;;;;;5037734;28;20635;-71
2022/08/29 05:34:13;;;;;;;2.50;2.10;;;23.50;44.60;;;;;;5011040;28;20514;-71
2022/08/29 05:37:01;;;;;;;3.33;2.00;;;23.50;44.70;;;;;;5010205;28;20526;-72
2022/08/29 05:39:30;;;;;;;2.53;1.50;;;23.50;44.80;;;;;;5043049;28;20442;-71
2022/08/29 05:41:59;;;;;;;2.40;2.20;;;23.50;44.80;;;;;;4997714;28;20494;-71
2022/08/29 05:44:31;;;;;;;2.53;1.63;;;23.50;44.70;;;;;;5034304;28;21010;-71
2022/08/29 05:47:04;;;;;;;2.00;1.80;;;23.50;44.70;;;;;;5011967;28;20427;-71
2022/08/29 05:49:32;;;;;;;2.50;2.30;;;23.50;44.70;;;;;;5010887;28;20846;-71
2022/08/29 05:52:01;;;;;;;3.20;1.90;;;23.50;44.80;;;;;;5001883;28;20815;-71
2022/08/29 05:54:32;;;;;;;5.33;1.90;;;23.50;44.80;;;;;;5028640;28;20487;-71
2022/08/29 05:57:00;;;;;;;2.10;1.50;;;23.50;44.90;;;;;;5020446;28;20524;-72
2022/08/29 05:59:30;;;;;;;2.63;1.50;;;23.50;44.80;;;;;;5010684;28;20486;-72
2022/08/29 06:01:58;;;;;;;3.07;2.07;;;23.50;44.80;;;;;;5002903;28;20448;-71
2022/08/29 06:04:26;;;;;;;2.60;1.80;;;23.50;44.70;;;;;;5011753;28;20863;-72
2022/08/29 06:06:55;;;;;;;2.30;2.10;;;23.50;44.80;;;;;;5009923;28;20436;-71
2022/08/29 06:09:24;;;;;;;2.43;2.23;;;23.50;44.90;;;;;;5016613;28;20455;-71
2022/08/29 06:11:53;;;;;;;1.93;1.70;;;23.50;44.80;;;;;;5039473;28;21026;-71
2022/08/29 06:14:21;;;;;;;3.07;2.50;;;23.50;44.90;;;;;;5025547;28;20482;-73
2022/08/29 06:16:51;;;;;;;2.83;2.07;;;23.40;45.00;;;;;;5021620;28;20781;-72
2022/08/29 06:19:20;;;;;;;2.10;1.90;;;23.40;44.80;;;;;;5011317;28;20456;-71
2022/08/29 06:21:48;;;;;;;2.90;2.17;;;23.40;44.80;;;;;;5007790;28;20455;-71
2022/08/29 06:24:17;;;;;;;3.63;2.00;;;23.40;44.80;;;;;;5010035;28;20941;-71
2022/08/29 06:26:45;;;;;;;3.00;2.07;;;23.40;44.80;;;;;;5010268;28;20447;-72
2022/08/29 06:29:15;;;;;;;2.73;1.93;;;23.40;44.70;;;;;;5018154;28;20464;-72
2022/08/29 06:31:43;;;;;;;2.83;2.23;;;23.40;44.80;;;;;;4993515;28;20451;-71
2022/08/29 06:34:13;;;;;;;1.63;1.47;;;23.40;44.80;;;;;;5010334;28;20476;-71
2022/08/29 06:36:42;;;;;;;2.10;1.90;;;23.40;44.80;;;;;;5033528;28;20476;-71
2022/08/29 06:39:11;;;;;;;3.53;2.17;;;23.40;44.80;;;;;;4986374;28;21885;-72
2022/08/29 06:41:40;;;;;;;2.60;2.10;;;23.40;44.70;;;;;;5030481;28;20444;-71
2022/08/29 06:44:10;;;;;;;4.30;2.17;;;23.40;44.70;;;;;;5017840;28;20471;-71
2022/08/29 06:46:41;;;;;;;3.47;2.20;;;23.40;44.80;;;;;;5009574;28;20482;-71
2022/08/29 06:49:12;;;;;;;4.37;2.43;;;23.40;44.50;;;;;;5032431;28;20463;-72
2022/08/29 06:51:45;;;;;;;2.37;1.70;;;23.40;44.60;;;;;;5012718;28;20527;-71
2022/08/29 06:54:14;;;;;;;3.90;2.47;;;23.30;44.40;;;;;;5009721;28;20479;-71
2022/08/29 06:56:43;;;;;;;3.23;1.90;;;23.30;44.40;;;;;;5018906;28;20513;-72
2022/08/29 06:59:12;;;;;;;2.93;1.90;;;23.30;44.30;;;;;;5016055;28;20566;-71
2022/08/29 07:01:41;;;;;;;2.13;1.90;;;23.30;44.40;;;;;;5011150;28;20490;-71
2022/08/29 07:04:10;;;;;;;2.87;1.83;;;23.30;44.40;;;;;;4996728;28;20475;-72
2022/08/29 07:06:44;;;;;;;3.40;2.17;;;23.30;44.20;;;;;;5011986;28;20874;-73
2022/08/29 07:09:13;;;;;;;3.87;2.50;;;23.40;44.30;;;;;;5034199;28;20967;-71
2022/08/29 07:11:42;;;;;;;4.73;2.50;;;23.30;44.20;;;;;;5010867;28;20923;-71
2022/08/29 07:14:12;;;;;;;4.20;2.50;;;23.30;44.10;;;;;;4987676;28;20488;-72
2022/08/29 07:16:41;;;;;;;3.73;2.30;;;23.30;44.30;;;;;;5006986;28;20464;-71
2022/08/29 07:19:10;;;;;;;2.50;1.97;;;23.40;44.60;;;;;;5008504;28;20530;-71
2022/08/29 07:21:39;;;;;;;1.80;1.50;;;23.30;44.70;;;;;;5019041;28;20444;-71
2022/08/29 07:24:09;;;;;;;3.50;1.87;;;23.30;44.70;;;;;;5024266;28;20611;-70
2022/08/29 07:26:41;;;;;;;3.10;2.37;;;23.40;44.30;;;;;;5010072;28;20531;-70
2022/08/29 07:29:13;;;;;;;7.93;3.43;;;23.60;44.00;;;;;;5001620;28;20902;-70
2022/08/29 07:31:42;;;;;;;5.93;2.77;;;23.80;43.30;;;;;;5027677;28;20470;-70
2022/08/29 07:34:11;;;;;;;4.97;2.83;;;23.90;42.80;;;;;;5026256;28;20472;-69
2022/08/29 07:36:40;;;;;;;2.73;2.27;;;24.00;42.50;;;;;;5008670;28;21060;-70
2022/08/29 07:39:11;;;;;;;5.33;2.63;;;24.10;42.10;;;;;;5004758;28;20824;-71
2022/08/29 07:41:41;;;;;;;5.37;2.20;;;24.10;41.90;;;;;;5027734;28;20448;-70
2022/08/29 07:46:55;;;;;;;5.03;3.40;;;24.10;41.80;;;;;;4931938;29;20492;-53
2022/08/29 07:49:23;;;;;;;3.93;3.07;;;24.10;41.50;;;;;;4953196;28;20543;-52
2022/08/29 07:52:08;;;;;;;4.90;3.20;;;24.10;41.30;;;;;;4953664;28;20450;-53
2022/08/29 07:54:37;;;;;;;4.67;2.60;;;24.10;41.10;;;;;;4952204;28;20513;-54
2022/08/29 07:57:07;;;;;;;4.30;2.90;;;24.10;41.10;;;;;;4970618;28;20529;-54
2022/08/29 07:59:37;;;;;;;4.23;2.37;;;24.10;41.20;;;;;;4972097;28;20442;-52
2022/08/29 08:02:06;;;;;;;3.30;2.27;;;24.10;41.50;;;;;;4954342;28;20451;-53
2022/08/29 08:04:36;;;;;;;5.13;3.37;;;24.10;41.20;;;;;;4978618;28;20478;-54
2022/08/29 08:07:05;;;;;;;3.73;2.03;;;24.10;41.30;;;;;;4952102;28;20446;-53
2022/08/29 08:09:42;;;;;;;4.20;2.70;;;24.10;41.00;;;;;;4978382;28;20782;-54
2022/08/29 08:12:11;;;;;;;4.37;3.17;;;24.10;41.10;;;;;;4973757;28;20442;-55
2022/08/29 08:14:39;;;;;;;5.47;3.13;;;24.10;41.00;;;;;;4976457;28;20834;-53
2022/08/29 08:17:08;;;;;;;5.50;2.60;;;24.00;41.00;;;;;;4959241;28;20983;-54
2022/08/29 08:19:38;;;;;;;3.77;2.97;;;24.00;41.00;;;;;;4952075;28;20446;-53
2022/08/29 08:22:06;;;;;;;5.63;2.70;;;24.00;40.90;;;;;;4970426;28;20439;-55
2022/08/29 08:24:35;;;;;;;4.70;2.60;;;24.00;40.60;;;;;;4978292;28;20886;-55
2022/08/29 08:27:05;;;;;;;3.63;2.40;;;24.00;40.50;;;;;;4972858;28;20441;-54
2022/08/29 08:29:34;;;;;;;4.17;2.17;;;23.90;40.60;;;;;;4971055;28;20599;-53
2022/08/29 08:32:03;;;;;;;5.40;2.60;;;23.90;40.20;;;;;;4956408;28;20446;-53
2022/08/29 08:34:32;;;;;;;3.03;2.40;;;23.90;40.30;;;;;;4982735;28;20470;-53
2022/08/29 08:37:07;;;;;;;5.00;2.30;;;24.00;40.50;;;;;;4968202;28;20473;-54
2022/08/29 08:39:36;;;;;;;3.50;2.30;;;24.00;40.50;;;;;;4953202;28;20534;-52
2022/08/29 08:42:16;;;;;;;4.57;2.30;;;23.90;40.20;;;;;;4983006;28;20449;-53
2022/08/29 08:45:16;;;;;;;3.43;1.90;;;23.80;40.60;;;;;;4978308;28;20469;-52
2022/08/29 08:47:51;;;;;;;3.57;2.00;;;23.80;41.20;;;;;;4969122;28;20470;-54
2022/08/29 08:50:27;;;;;;;2.83;1.70;;;23.60;41.50;;;;;;4967255;28;20443;-54
2022/08/29 08:52:59;;;;;;;2.10;1.90;;;23.60;42.00;;;;;;4987626;28;20457;-53
2022/08/29 08:55:35;;;;;;;3.27;2.67;;;23.50;42.10;;;;;;4956259;28;20469;-53
2022/08/29 08:58:18;;;;;;;7.30;2.97;;;23.50;42.50;;;;;;4975328;28;20473;-53
2022/08/29 09:00:59;;;;;;;4.80;1.77;;;23.50;42.60;;;;;;4981626;28;20484;-52
2022/08/29 09:04:03;;;;;;;4.17;2.30;;;23.40;42.70;;;;;;4978783;28;20473;-53
2022/08/29 09:06:49;;;;;;;2.30;1.93;;;23.40;42.80;;;;;;4949871;28;20457;-53
2022/08/29 09:09:27;;;;;;;3.37;2.23;;;23.40;42.90;;;;;;4968002;28;20536;-55
2022/08/29 09:12:13;;;;;;;3.33;2.03;;;23.30;42.90;;;;;;5003926;28;20457;-54
2022/08/29 09:14:56;;;;;;;2.67;2.10;;;23.30;43.00;;;;;;4977367;28;20546;-53
2022/08/29 09:17:31;;;;;;;4.50;2.17;;;23.30;43.00;;;;;;4988106;28;20470;-53
2022/08/29 09:20:08;;;;;;;3.47;1.80;;;23.30;43.10;;;;;;4970708;28;20439;-54
2022/08/29 09:22:39;;;;;;;2.97;2.00;;;23.30;43.10;;;;;;4972397;28;20469;-51
2022/08/29 09:25:12;;;;;;;2.90;1.83;;;23.30;43.20;;;;;;4958948;28;20462;-54
2022/08/29 09:27:40;;;;;;;1.60;1.50;;;23.30;43.20;;;;;;4953496;28;20517;-54
2022/08/29 09:30:15;;;;;;;3.30;2.20;;;23.30;43.30;;;;;;4974915;28;20968;-53
2022/08/29 09:32:55;;;;;;;2.80;2.23;;;23.30;43.40;;;;;;4980922;28;21015;-54
2022/08/29 09:35:30;;;;;;;2.40;1.73;;;23.30;43.40;;;;;;4977187;28;20521;-52
2022/08/29 09:38:04;;;;;;;3.33;2.43;;;23.20;43.30;;;;;;4972095;28;21001;-54
2022/08/29 09:40:51;;;;;;;2.43;2.23;;;23.20;43.50;;;;;;4971799;28;20442;-52
2022/08/29 09:43:24;;;;;;;1.70;1.50;;;23.30;43.50;;;;;;4973805;28;20489;-54
2022/08/29 09:46:14;;;;;;;2.50;1.77;;;23.30;43.50;;;;;;4964612;28;20443;-53
2022/08/29 09:48:46;;;;;;;4.53;2.70;;;23.20;43.50;;;;;;4973375;28;20509;-54
2022/08/29 09:51:21;;;;;;;1.87;1.73;;;23.20;43.50;;;;;;4971731;28;20470;-54
2022/08/29 09:53:54;;;;;;;3.20;1.77;;;23.20;43.50;;;;;;4971367;28;20470;-53
2022/08/29 09:56:27;;;;;;;1.70;1.60;;;23.20;43.50;;;;;;4979340;28;20430;-54
2022/08/29 09:59:01;;;;;;;3.47;2.33;;;23.20;43.50;;;;;;4975026;28;20529;-53
2022/08/29 10:01:32;;;;;;;2.30;2.07;;;23.20;43.60;;;;;;4973063;28;20441;-53
2022/08/29 10:04:06;;;;;;;3.43;2.07;;;23.20;43.60;;;;;;4988777;28;20466;-54
2022/08/29 10:06:38;;;;;;;1.70;1.60;;;23.20;43.70;;;;;;4959017;28;20451;-53
2022/08/29 10:09:25;;;;;;;2.10;1.90;;;23.20;43.60;;;;;;4964064;28;20521;-54
2022/08/29 10:11:59;;;;;;;2.33;2.00;;;23.20;43.70;;;;;;4988009;28;20443;-53
2022/08/29 10:14:36;;;;;;;4.50;1.50;;;23.20;43.60;;;;;;4979277;28;20502;-52
2022/08/29 10:20:01;;;;;;;2.77;1.90;;;23.20;43.70;;;;;;4976476;28;20442;-53
2022/08/29 10:22:37;;;;;;;1.97;1.30;;;23.20;43.70;;;;;;4954693;28;20505;-53
2022/08/29 10:25:12;;;;;;;2.00;1.60;;;23.20;43.80;;;;;;4954967;28;21097;-51
2022/08/29 10:27:47;;;;;;;2.57;1.50;;;23.20;43.70;;;;;;4971942;28;20473;-55
2022/08/29 10:30:20;;;;;;;3.70;1.90;;;23.20;43.70;;;;;;4974932;28;20445;-51
2022/08/29 10:33:08;;;;;;;1.73;1.60;;;23.20;43.70;;;;;;4972395;28;20478;-54
2022/08/29 10:35:40;;;;;;;2.30;1.77;;;23.20;43.80;;;;;;4977422;28;20461;-55
2022/08/29 10:38:16;;;;;;;1.90;1.57;;;23.20;43.80;;;;;;4979891;28;20458;-54
2022/08/29 10:40:48;;;;;;;2.93;1.77;;;23.20;43.90;;;;;;4976277;28;20533;-53
2022/08/29 10:43:33;;;;;;;3.37;2.10;;;23.20;43.80;;;;;;4962999;28;20560;-52
2022/08/29 10:46:41;;;;;;;1.90;1.57;;;23.20;43.80;;;;;;4985496;28;20461;-52
2022/08/29 10:49:22;;;;;;;3.50;1.83;;;23.20;43.80;;;;;;4971381;28;20470;-53
2022/08/29 10:51:58;;;;;;;2.17;1.53;;;23.20;44.10;;;;;;4952667;28;20455;-53
2022/08/29 10:54:39;;;;;;;2.97;1.60;;;23.20;43.90;;;;;;4971684;28;20454;-55
2022/08/29 10:57:08;;;;;;;2.37;1.70;;;23.20;43.70;;;;;;4969409;28;20443;-53
2022/08/29 10:59:49;;;;;;;2.50;1.70;;;23.20;43.70;;;;;;4961887;28;20988;-54
2022/08/29 11:02:27;;;;;;;2.00;1.73;;;23.20;43.70;;;;;;4973835;28;20427;-52
2022/08/29 11:05:04;;;;;;;2.20;1.60;;;23.20;43.70;;;;;;4968755;28;20992;-54
2022/08/29 11:07:36;;;;;;;2.30;1.70;;;23.20;43.70;;;;;;4957652;28;20450;-53
2022/08/29 11:10:11;;;;;;;2.03;1.83;;;23.20;43.50;;;;;;4970750;28;20431;-51
2022/08/29 11:12:45;;;;;;;3.00;1.73;;;23.20;43.40;;;;;;4969313;28;20222;-52
2022/08/29 11:15:19;;;;;;;2.13;1.60;;;23.20;43.50;;;;;;4952868;28;20462;-52
2022/08/29 11:17:55;;;;;;;2.70;1.50;;;23.20;43.40;;;;;;4972040;28;20465;-54
2022/08/29 11:20:31;;;;;;;1.83;1.60;;;23.20;43.40;;;;;;4970692;28;20498;-52
2022/08/29 11:23:06;;;;;;;3.03;1.60;;;23.20;43.40;;;;;;4971138;28;20466;-53
2022/08/29 11:25:40;;;;;;;3.37;2.20;;;23.20;43.40;;;;;;4970142;28;20925;-53
2022/08/29 11:28:19;;;;;;;2.30;1.30;;;23.20;43.30;;;;;;4963486;28;20435;-52
2022/08/29 11:30:55;;;;;;;2.43;1.97;;;23.20;43.40;;;;;;4969238;28;20505;-53
2022/08/29 11:33:32;;;;;;;1.57;1.47;;;23.20;43.50;;;;;;4953348;28;20470;-52
2022/08/29 11:36:19;;;;;;;1.93;1.53;;;23.20;43.50;;;;;;4969888;28;20481;-52
2022/08/29 11:39:19;;;;;;;1.33;1.10;;;23.20;43.50;;;;;;4978603;28;20815;-54
2022/08/29 11:41:50;;;;;;;2.80;1.70;;;23.20;43.50;;;;;;4955400;28;20439;-52
2022/08/29 11:44:28;;;;;;;1.87;1.53;;;23.20;43.50;;;;;;4968397;28;20492;-53
2022/08/29 11:46:57;;;;;;;2.07;1.40;;;23.20;43.50;;;;;;4970754;28;20442;-53
2022/08/29 11:49:40;;;;;;;2.30;1.60;;;23.20;43.50;;;;;;4969767;28;20538;-52
2022/08/29 11:52:25;;;;;;;1.60;1.50;;;23.20;43.50;;;;;;4987528;28;20445;-52
2022/08/29 11:55:21;;;;;;;2.40;1.60;;;23.20;43.40;;;;;;4973405;28;20466;-53
2022/08/29 11:57:54;;;;;;;1.90;1.50;;;23.20;43.40;;;;;;4966163;28;20474;-53
2022/08/29 12:00:37;;;;;;;2.40;1.27;;;23.20;43.40;;;;;;4968604;28;20471;-55
2022/08/29 12:03:46;;;;;;;2.37;1.40;;;23.20;43.50;;;;;;4969872;28;20474;-52
2022/08/29 12:06:37;;;;;;;1.90;1.37;;;23.20;43.40;;;;;;4968876;28;20787;-52
2022/08/29 12:09:31;;;;;;;2.20;1.80;;;23.20;43.50;;;;;;4970710;28;20471;-54
2022/08/29 12:12:35;;;;;;;2.60;1.87;;;23.20;43.40;;;;;;4971837;28;20435;-53
2022/08/29 12:15:44;;;;;;;1.90;1.20;;;23.30;43.50;;;;;;4984380;28;20541;-53
2022/08/29 12:18:43;;;;;;;2.90;1.47;;;23.20;43.40;;;;;;4970846;28;20478;-53
2022/08/29 12:21:48;;;;;;;1.67;1.57;;;23.30;43.50;;;;;;4947172;28;20868;-53
2022/08/29 12:24:40;;;;;;;2.30;1.80;;;23.30;43.60;;;;;;4975533;28;20548;-54
2022/08/29 12:27:23;;;;;;;2.80;1.70;;;23.30;43.60;;;;;;4958493;28;20442;-52
2022/08/29 12:29:53;;;;;;;1.80;1.53;;;23.30;43.60;;;;;;4973201;28;20695;-54
2022/08/29 12:32:45;;;;;;;1.90;1.40;;;23.30;43.70;;;;;;4960317;28;20462;-53
2022/08/29 12:35:35;;;;;;;1.53;1.30;;;23.30;43.50;;;;;;4977212;28;21052;-54
2022/08/29 12:38:21;;;;;;;2.30;1.80;;;23.30;43.60;;;;;;4973629;28;20470;-54
2022/08/29 12:41:12;;;;;;;2.10;1.57;;;23.30;43.60;;;;;;4973950;28;20465;-53
2022/08/29 12:43:44;;;;;;;2.13;1.50;;;23.30;43.50;;;;;;4972939;28;21044;-51
2022/08/29 12:46:18;;;;;;;2.23;1.80;;;23.30;43.60;;;;;;4974193;28;20449;-52
2022/08/29 12:48:54;;;;;;;5.80;2.00;;;23.30;43.50;;;;;;4994403;28;20470;-51
2022/08/29 12:51:33;;;;;;;1.90;1.50;;;23.30;43.60;;;;;;4977816;28;20481;-53
2022/08/29 12:54:02;;;;;;;2.87;2.13;;;23.30;43.50;;;;;;4972095;28;20478;-52
2022/08/29 12:56:33;;;;;;;1.57;1.33;;;23.30;43.60;;;;;;4973280;28;20449;-53
2022/08/29 12:59:04;;;;;;;2.77;2.10;;;23.30;43.50;;;;;;4984867;28;21411;-53
2022/08/29 13:01:37;;;;;;;2.50;1.70;;;23.30;43.50;;;;;;4972769;28;20450;-54
2022/08/29 13:04:13;;;;;;;2.80;1.50;;;23.30;43.60;;;;;;4972324;28;20498;-54
2022/08/29 13:07:01;;;;;;;1.60;1.40;;;23.30;43.60;;;;;;4958362;28;20449;-52
2022/08/29 13:09:31;;;;;;;1.57;1.47;;;23.30;43.60;;;;;;4956293;28;20454;-54
2022/08/29 13:12:14;;;;;;;2.30;1.60;;;23.30;43.60;;;;;;4980540;28;20434;-52
2022/08/29 13:14:52;;;;;;;2.10;1.40;;;23.30;43.50;;;;;;4972161;28;20477;-54
2022/08/29 13:17:23;;;;;;;2.93;1.80;;;23.30;43.50;;;;;;4972299;28;20888;-52
2022/08/29 13:20:29;;;;;;;1.87;1.20;;;23.40;43.60;;;;;;4970290;28;20463;-52
2022/08/29 13:23:08;;;;;;;1.73;1.30;;;23.40;43.60;;;;;;4986974;28;20475;-54
2022/08/29 13:25:44;;;;;;;1.73;1.40;;;23.40;43.60;;;;;;4973996;28;20796;-52
2022/08/29 13:28:19;;;;;;;3.00;1.33;;;23.40;43.60;;;;;;4966735;28;20438;-55